Bellarthur, North Carolina
Current Conditions -  °F | °C
As of 7:15 AM on Friday 21 Nov 2014 (Local Time) from KPGV Reporting Station
Clear Clear  
Wind Chill: 30°   Ceiling: Unl
Heat Index: 30°   Visibility: 10mi
Dew Point: 28°   Wind: 0mph
Humidity: 93%   Direction: NA
Pressure: 30.34"   Gusts: NA
Location:  35.59°N, 77.52°W
Report Text: KPGV 211215Z AUTO 00000KT 10SM CLR M01/M02 A3034 RMK AO2
Loading
Personal Weather Stations






























Interactive Weather Map New forecast layout! Learn more

10-Day Weather Forecast

Advertisements
Track Severe Weather on mobile